FDTS weather

Tshaneni Airport
Tshaneni, Lubombo, Swaziland

Public forecast

Using degrees Celsius for public forecast. Weather courtesy of forecast.io.

METAR (pilot weather report)

Report is more than 2 hours old.

Closest report is Matsapha Airport, 33.3 nm (61.6 km) S. Retrieved 2019/07/19 14:00 UTC (2 hours ago):

FDMS 191400Z 27010G20KT CAVOK 29/M04 Q1012 NOSIG

TAF (pilot weather forecast)

Forecast is more than 12 hours old.

Closest forecast is Matsapha Airport, 33.3 nm (61.6 km) S. Retrieved 2019/06/03 12:35 UTC (2 months ago):

TAF FDMS 031000Z 0312/0418 12006KT CAVOK